createdAt,value
2022-09-28T00:01:24.963Z,3.60
2022-09-28T00:03:57.567Z,4.20
2022-09-28T00:06:34.617Z,4.30
2022-09-28T00:09:03.103Z,4.40
2022-09-28T00:11:39.684Z,4.30
2022-09-28T00:14:08.518Z,4.33
2022-09-28T00:16:47.025Z,3.70
2022-09-28T00:19:15.730Z,4.10
2022-09-28T00:21:50.636Z,3.83
2022-09-28T00:24:22.986Z,4.13
2022-09-28T00:27:02.799Z,4.33
2022-09-28T00:29:45.145Z,4.67
2022-09-28T00:32:21.734Z,4.60
2022-09-28T00:34:50.107Z,4.37
2022-09-28T00:37:26.822Z,4.23
2022-09-28T00:39:55.513Z,4.60
2022-09-28T00:42:33.886Z,4.10
2022-09-28T00:45:02.341Z,4.37
2022-09-28T00:47:49.868Z,4.37
2022-09-28T00:50:37.730Z,4.20
2022-09-28T00:53:11.992Z,3.30
2022-09-28T00:55:52.734Z,2.97
2022-09-28T00:58:27.857Z,2.50
2022-09-28T01:01:04.862Z,2.70
2022-09-28T01:03:34.867Z,1.50
2022-09-28T01:06:11.703Z,1.67
2022-09-28T01:08:41.571Z,1.50
2022-09-28T01:11:16.873Z,1.77
2022-09-28T01:13:47.942Z,1.20
2022-09-28T01:16:28.838Z,1.30
2022-09-28T01:19:09.543Z,1.30
2022-09-28T01:21:58.697Z,1.40
2022-09-28T01:24:42.181Z,1.33
2022-09-28T01:27:37.699Z,1.43
2022-09-28T01:30:29.874Z,1.63
2022-09-28T01:33:10.911Z,1.60
2022-09-28T01:35:44.186Z,1.90
2022-09-28T01:38:25.721Z,2.37
2022-09-28T01:40:55.425Z,1.97
2022-09-28T01:43:34.721Z,2.00
2022-09-28T01:46:09.780Z,1.87
2022-09-28T01:48:50.729Z,2.00
2022-09-28T01:51:25.625Z,2.10
2022-09-28T01:54:06.727Z,2.20
2022-09-28T01:56:39.408Z,2.30
2022-09-28T01:59:19.929Z,2.37
2022-09-28T02:01:53.512Z,2.40
2022-09-28T02:04:32.732Z,2.60
2022-09-28T02:07:06.913Z,3.40
2022-09-28T02:09:47.729Z,3.27
2022-09-28T02:12:21.449Z,3.40
2022-09-28T02:15:00.757Z,3.40
2022-09-28T02:17:29.243Z,3.60
2022-09-28T02:20:04.800Z,4.20
2022-09-28T02:22:40.763Z,4.07
2022-09-28T02:25:19.766Z,4.80
2022-09-28T02:27:57.967Z,4.40
2022-09-28T02:30:43.733Z,4.30
2022-09-28T02:33:23.256Z,4.97
2022-09-28T02:35:58.827Z,4.80
2022-09-28T02:38:28.019Z,5.00
2022-09-28T02:41:10.775Z,5.63
2022-09-28T02:43:50.883Z,6.17
2022-09-28T02:46:36.834Z,6.80
2022-09-28T02:49:21.766Z,6.27
2022-09-28T02:52:09.784Z,6.50
2022-09-28T02:54:59.747Z,6.90
2022-09-28T02:57:44.998Z,6.63
2022-09-28T03:00:18.196Z,7.57
2022-09-28T03:03:05.786Z,7.50
2022-09-28T03:05:41.332Z,7.70
2022-09-28T03:08:20.807Z,7.57
2022-09-28T03:10:53.459Z,7.43
2022-09-28T03:13:28.784Z,7.27
2022-09-28T03:16:09.541Z,7.33
2022-09-28T03:18:45.942Z,7.67
2022-09-28T03:21:15.478Z,8.20
2022-09-28T03:23:50.870Z,7.93
2022-09-28T03:26:19.921Z,7.67
2022-09-28T03:28:54.799Z,7.17
2022-09-28T03:31:30.080Z,6.70
2022-09-28T03:34:06.908Z,6.00
2022-09-28T03:36:35.193Z,5.83
2022-09-28T03:39:11.084Z,5.17
2022-09-28T03:41:39.704Z,5.23
2022-09-28T03:44:14.817Z,4.77
2022-09-28T03:46:43.203Z,4.40
2022-09-28T03:49:19.902Z,4.23
2022-09-28T03:51:49.232Z,4.10
2022-09-28T03:54:23.905Z,3.80
2022-09-28T03:56:52.559Z,4.07
2022-09-28T03:59:26.820Z,4.27
2022-09-28T04:01:55.385Z,4.53
2022-09-28T04:04:31.915Z,4.77
2022-09-28T04:07:00.973Z,5.70
2022-09-28T04:09:35.821Z,6.00
2022-09-28T04:12:04.733Z,6.27
2022-09-28T04:14:39.889Z,6.20
2022-09-28T04:17:08.336Z,6.73
2022-09-28T04:19:44.797Z,7.03
2022-09-28T04:22:14.157Z,7.40
2022-09-28T04:24:49.871Z,7.70
2022-09-28T04:27:35.598Z,6.43
2022-09-28T04:30:10.951Z,6.77
2022-09-28T04:32:46.545Z,6.50
2022-09-28T04:35:23.917Z,6.87
2022-09-28T04:37:52.367Z,6.80
2022-09-28T04:40:27.105Z,7.13
2022-09-28T04:42:56.423Z,7.20
2022-09-28T04:45:32.954Z,7.97
2022-09-28T04:48:01.423Z,7.60
2022-09-28T04:50:37.887Z,7.97
2022-09-28T04:53:06.545Z,7.77
2022-09-28T04:55:42.109Z,7.53
2022-09-28T04:58:10.599Z,7.57
2022-09-28T05:00:45.912Z,8.07
2022-09-28T05:03:14.500Z,8.23
2022-09-28T05:05:53.915Z,7.77
2022-09-28T05:08:22.528Z,7.83
2022-09-28T05:11:04.936Z,7.97
2022-09-28T05:13:35.863Z,7.70
2022-09-28T05:16:10.994Z,7.93
2022-09-28T05:18:39.467Z,7.67
2022-09-28T05:21:20.119Z,7.80
2022-09-28T05:23:49.442Z,6.80
2022-09-28T05:26:24.969Z,6.47
2022-09-28T05:28:53.877Z,6.00
2022-09-28T05:31:36.002Z,6.13
2022-09-28T05:34:11.571Z,5.40
2022-09-28T05:36:48.979Z,4.97
2022-09-28T05:39:17.367Z,4.97
2022-09-28T05:41:45.903Z,4.93
2022-09-28T05:44:21.105Z,4.43
2022-09-28T05:46:49.589Z,4.70
2022-09-28T05:49:24.938Z,4.20
2022-09-28T05:52:01.084Z,4.67
2022-09-28T05:54:29.663Z,5.07
2022-09-28T05:57:05.111Z,5.07
2022-09-28T05:59:35.225Z,5.33
2022-09-28T06:02:11.219Z,5.40
2022-09-28T06:04:39.928Z,5.50
2022-09-28T06:07:15.949Z,5.00
2022-09-28T06:09:44.069Z,4.90
2022-09-28T06:12:18.995Z,4.67
2022-09-28T06:14:48.713Z,4.20
2022-09-28T06:17:24.101Z,4.30
2022-09-28T06:19:53.262Z,4.60
2022-09-28T06:22:30.295Z,4.37
2022-09-28T06:24:58.753Z,3.70
2022-09-28T06:27:34.034Z,4.30
2022-09-28T06:30:09.091Z,3.60
2022-09-28T06:32:44.105Z,3.50
2022-09-28T06:35:22.002Z,3.67
2022-09-28T06:37:52.239Z,3.10
2022-09-28T06:40:28.022Z,3.17
2022-09-28T06:42:57.957Z,3.30
2022-09-28T06:45:33.972Z,3.13
2022-09-28T06:48:03.514Z,3.17
2022-09-28T06:50:40.969Z,2.57
2022-09-28T06:53:13.840Z,3.00
2022-09-28T06:55:49.013Z,2.93
2022-09-28T06:58:19.664Z,3.37
2022-09-28T07:00:56.306Z,3.50
2022-09-28T07:03:24.596Z,2.73
2022-09-28T07:06:02.027Z,3.30
2022-09-28T07:08:32.228Z,2.97
2022-09-28T07:11:08.743Z,3.07
2022-09-28T07:13:53.447Z,3.00
2022-09-28T07:16:43.775Z,3.30
2022-09-28T07:19:17.532Z,3.17
2022-09-28T07:22:02.245Z,3.50
2022-09-28T07:24:34.481Z,3.30
2022-09-28T07:27:12.118Z,3.70
2022-09-28T07:29:47.636Z,3.73
2022-09-28T07:32:29.072Z,4.17
2022-09-28T07:34:58.969Z,3.90
2022-09-28T07:37:27.637Z,4.70
2022-09-28T07:40:21.132Z,3.93
2022-09-28T07:42:49.747Z,5.20
2022-09-28T07:45:27.085Z,5.23
2022-09-28T07:47:57.126Z,3.97
2022-09-28T07:50:32.260Z,4.10
2022-09-28T07:53:00.783Z,3.73
2022-09-28T07:55:37.013Z,3.80
2022-09-28T07:58:05.702Z,4.30
2022-09-28T08:00:41.132Z,4.70
2022-09-28T08:03:09.517Z,3.93
2022-09-28T08:05:38.179Z,3.53
2022-09-28T08:08:13.070Z,3.23
2022-09-28T08:10:47.235Z,3.27
2022-09-28T08:13:26.704Z,3.27
2022-09-28T08:15:56.432Z,3.00
2022-09-28T08:18:31.077Z,3.10
2022-09-28T08:21:16.942Z,3.30
2022-09-28T08:23:52.096Z,3.20
2022-09-28T08:26:22.237Z,3.23
2022-09-28T08:28:58.152Z,3.03
2022-09-28T08:31:34.003Z,3.00
2022-09-28T08:34:16.141Z,2.90
2022-09-28T08:36:44.639Z,2.90
2022-09-28T08:39:20.131Z,3.00
2022-09-28T08:41:56.082Z,2.60
2022-09-28T08:44:33.485Z,2.80
2022-09-28T08:47:05.753Z,2.90
2022-09-28T08:49:46.202Z,2.43
2022-09-28T08:52:20.735Z,2.80
2022-09-28T08:55:01.218Z,2.60
2022-09-28T08:57:42.098Z,2.97
2022-09-28T09:00:21.060Z,2.50
2022-09-28T09:02:56.183Z,2.63
2022-09-28T09:05:37.071Z,3.13
2022-09-28T09:08:25.402Z,2.47
2022-09-28T09:10:58.004Z,2.23
2022-09-28T09:14:00.308Z,3.17
2022-09-28T09:16:45.551Z,2.30
2022-09-28T09:19:24.305Z,2.07
2022-09-28T09:22:01.687Z,2.33
2022-09-28T09:24:46.383Z,2.30
2022-09-28T09:27:31.452Z,1.70
2022-09-28T09:30:16.098Z,1.97
2022-09-28T09:33:24.304Z,1.60
2022-09-28T09:36:17.153Z,2.03
2022-09-28T09:38:58.169Z,1.97
2022-09-28T09:41:44.228Z,1.87
2022-09-28T09:44:42.693Z,2.03
2022-09-28T09:47:23.198Z,1.73
2022-09-28T09:49:57.267Z,1.83
2022-09-28T09:52:38.708Z,1.73
2022-09-28T09:55:29.021Z,1.97
2022-09-28T09:58:04.597Z,1.90
2022-09-28T10:00:40.333Z,1.67
2022-09-28T10:03:21.170Z,1.80
2022-09-28T10:06:02.335Z,1.90
2022-09-28T10:08:35.888Z,1.70
2022-09-28T10:11:16.229Z,1.73
2022-09-28T10:13:44.824Z,1.50
2022-09-28T10:16:20.240Z,1.60
2022-09-28T10:18:51.099Z,1.50
2022-09-28T10:21:30.155Z,1.30
2022-09-28T10:24:02.681Z,1.13
2022-09-28T10:26:43.236Z,1.30
2022-09-28T10:29:18.132Z,1.77
2022-09-28T10:32:03.104Z,1.53
2022-09-28T10:34:32.904Z,1.73
2022-09-28T10:37:12.226Z,1.47
2022-09-28T10:39:49.387Z,1.20
2022-09-28T10:42:28.262Z,1.40
2022-09-28T10:45:01.622Z,1.30
2022-09-28T10:47:39.227Z,1.50
2022-09-28T10:50:29.419Z,1.23
2022-09-28T10:53:12.925Z,1.30
2022-09-28T10:55:48.190Z,1.33
2022-09-28T10:58:27.076Z,1.33
2022-09-28T11:01:11.305Z,1.40
2022-09-28T11:03:51.312Z,1.50
2022-09-28T11:06:35.368Z,1.60
2022-09-28T11:09:07.628Z,1.30
2022-09-28T11:11:49.203Z,1.60
2022-09-28T11:14:28.050Z,1.40
2022-09-28T11:17:25.436Z,1.20
2022-09-28T11:19:54.201Z,1.13
2022-09-28T11:22:35.226Z,1.20
2022-09-28T11:25:24.602Z,1.57
2022-09-28T11:28:11.270Z,0.90
2022-09-28T11:30:52.859Z,0.93
2022-09-28T11:33:40.624Z,1.00
2022-09-28T11:36:24.776Z,1.67
2022-09-28T11:39:12.243Z,0.80
2022-09-28T11:41:55.020Z,1.03
2022-09-28T11:44:46.279Z,1.00
2022-09-28T11:47:33.713Z,1.10
2022-09-28T11:50:20.045Z,1.20
2022-09-28T11:52:58.547Z,1.00
2022-09-28T11:55:40.276Z,1.13
2022-09-28T11:58:14.733Z,1.10
2022-09-28T12:00:55.776Z,1.10
2022-09-28T12:03:32.174Z,1.30
2022-09-28T12:06:11.257Z,1.20
2022-09-28T12:08:45.629Z,1.23
2022-09-28T12:11:27.395Z,0.90
2022-09-28T12:13:59.773Z,1.00
2022-09-28T12:17:03.999Z,0.80
2022-09-28T12:19:41.298Z,1.00
2022-09-28T12:22:22.352Z,0.83
2022-09-28T12:24:52.871Z,1.20
2022-09-28T12:27:36.368Z,1.00
2022-09-28T12:30:13.220Z,1.30
2022-09-28T12:33:01.320Z,1.03
2022-09-28T12:35:37.857Z,1.20
2022-09-28T12:38:32.625Z,1.40
2022-09-28T12:41:11.002Z,2.20
2022-09-28T12:44:13.763Z,1.33
2022-09-28T12:46:55.588Z,1.30
2022-09-28T12:50:36.551Z,1.60
2022-09-28T12:52:38.788Z,1.10
2022-09-28T12:55:33.441Z,0.90
2022-09-28T12:58:12.661Z,1.20
2022-09-28T13:00:58.697Z,1.00
2022-09-28T13:03:58.666Z,1.00
2022-09-28T13:06:45.458Z,0.80
2022-09-28T13:09:25.194Z,1.00
2022-09-28T13:12:23.380Z,1.13
2022-09-28T13:15:25.377Z,1.00
2022-09-28T13:18:19.706Z,1.00
2022-09-28T13:21:06.647Z,1.13
2022-09-28T13:23:47.472Z,1.20
2022-09-28T13:26:28.481Z,0.80
2022-09-28T13:29:08.594Z,0.93
2022-09-28T13:32:02.423Z,1.00
2022-09-28T13:34:42.409Z,1.07
2022-09-28T13:37:25.583Z,1.23
2022-09-28T13:40:03.363Z,1.20
2022-09-28T13:43:11.118Z,1.10
2022-09-28T13:46:05.500Z,1.10
2022-09-28T13:48:45.379Z,1.00
2022-09-28T13:51:47.370Z,1.13
2022-09-28T13:54:32.323Z,1.30
2022-09-28T13:57:17.354Z,1.50
2022-09-28T13:59:57.903Z,1.47
2022-09-28T14:02:42.633Z,1.37
2022-09-28T14:05:43.777Z,1.50
2022-09-28T14:08:40.440Z,1.30
2022-09-28T14:11:43.738Z,1.30
2022-09-28T14:14:53.630Z,1.30
2022-09-28T14:17:55.820Z,1.60
2022-09-28T14:20:34.457Z,1.57
2022-09-28T14:23:35.748Z,1.33
2022-09-28T14:26:40.590Z,1.30
2022-09-28T14:29:23.115Z,1.20
2022-09-28T14:31:58.372Z,1.00
2022-09-28T14:34:34.227Z,1.23
2022-09-28T14:37:29.595Z,1.07
2022-09-28T14:40:15.150Z,0.80
2022-09-28T14:43:30.567Z,1.10
2022-09-28T14:46:43.547Z,1.03
2022-09-28T14:49:48.876Z,1.03
2022-09-28T14:52:49.695Z,1.03
2022-09-28T14:55:25.814Z,1.10
2022-09-28T14:58:14.444Z,1.27
2022-09-28T15:00:45.461Z,1.17
2022-09-28T15:03:25.623Z,1.20
2022-09-28T15:05:54.546Z,1.20
2022-09-28T15:08:29.530Z,1.37
2022-09-28T15:11:02.132Z,2.73
2022-09-28T15:13:38.600Z,1.47
2022-09-28T15:16:11.661Z,1.40
2022-09-28T15:19:06.505Z,2.30
2022-09-28T15:21:37.423Z,1.30
2022-09-28T15:24:32.468Z,1.20
2022-09-28T15:27:01.838Z,1.30
2022-09-28T15:29:40.580Z,1.03
2022-09-28T15:32:38.565Z,1.97
2022-09-28T15:35:27.591Z,1.10
2022-09-28T15:37:57.208Z,1.27
2022-09-28T15:40:39.693Z,1.57
2022-09-28T15:43:33.153Z,1.50
2022-09-28T15:46:14.536Z,1.40
2022-09-28T15:48:52.105Z,1.87
2022-09-28T15:51:28.543Z,2.87
2022-09-28T15:54:00.051Z,2.60
2022-09-28T15:56:36.508Z,2.50
2022-09-28T15:59:13.144Z,1.90
2022-09-28T16:01:51.646Z,2.63
2022-09-28T16:04:39.061Z,3.53
2022-09-28T16:07:37.665Z,3.00
2022-09-28T16:10:30.947Z,2.30
2022-09-28T16:13:16.710Z,1.90
2022-09-28T16:15:45.723Z,2.60
2022-09-28T16:18:30.545Z,4.67
2022-09-28T16:21:21.904Z,3.90
2022-09-28T16:24:02.521Z,10.47
2022-09-28T16:26:34.656Z,5.73
2022-09-28T16:29:15.505Z,2.50
2022-09-28T16:31:52.927Z,4.10
2022-09-28T16:34:33.620Z,4.43
2022-09-28T16:37:02.011Z,4.57
2022-09-28T16:39:37.703Z,1.80
2022-09-28T16:42:08.750Z,1.50
2022-09-28T16:44:43.492Z,1.70
2022-09-28T16:47:12.968Z,1.20
2022-09-28T16:49:49.743Z,1.20
2022-09-28T16:52:38.630Z,1.60
2022-09-28T16:55:39.517Z,1.10
2022-09-28T16:58:08.835Z,1.40
2022-09-28T17:00:43.561Z,1.20
2022-09-28T17:03:15.464Z,1.50
2022-09-28T17:05:52.730Z,1.50
2022-09-28T17:08:22.792Z,1.30
2022-09-28T17:11:14.877Z,15.07
2022-09-28T17:13:52.581Z,19.77
2022-09-28T17:16:37.085Z,4.60
2022-09-28T17:19:26.552Z,6.27
2022-09-28T17:21:56.519Z,4.70
2022-09-28T17:24:31.735Z,4.03
2022-09-28T17:27:00.827Z,3.83
2022-09-28T17:29:35.627Z,2.70
2022-09-28T17:32:11.023Z,5.60
2022-09-28T17:35:06.582Z,4.33
2022-09-28T17:37:42.915Z,2.60
2022-09-28T17:40:27.592Z,2.40
2022-09-28T17:42:56.873Z,2.20
2022-09-28T17:45:35.578Z,3.07
2022-09-28T17:48:04.319Z,3.50
2022-09-28T17:50:46.143Z,2.43
2022-09-28T17:53:17.061Z,3.60
2022-09-28T17:55:52.806Z,3.50
2022-09-28T17:58:23.287Z,2.90
2022-09-28T18:00:59.647Z,3.03
2022-09-28T18:03:28.550Z,2.50
2022-09-28T18:06:11.898Z,2.73
2022-09-28T18:08:42.291Z,2.53
2022-09-28T18:11:18.807Z,2.43
2022-09-28T18:13:47.063Z,2.70
2022-09-28T18:16:22.750Z,2.50
2022-09-28T18:18:51.258Z,2.77
2022-09-28T18:21:26.850Z,2.30
2022-09-28T18:23:56.765Z,2.50
2022-09-28T18:26:34.748Z,2.77
2022-09-28T18:29:03.269Z,2.40
2022-09-28T18:31:52.869Z,2.30
2022-09-28T18:34:27.812Z,2.40
2022-09-28T18:37:04.667Z,2.63
2022-09-28T18:39:36.685Z,2.43
2022-09-28T18:42:14.897Z,2.30
2022-09-28T18:44:43.464Z,2.50
2022-09-28T18:47:20.814Z,3.57
2022-09-28T18:49:51.288Z,4.20
2022-09-28T18:52:26.819Z,3.20
2022-09-28T18:54:56.669Z,3.53
2022-09-28T18:57:31.673Z,4.00
2022-09-28T19:00:00.159Z,4.10
2022-09-28T19:02:35.861Z,3.30
2022-09-28T19:05:05.740Z,2.90
2022-09-28T19:07:40.666Z,3.40
2022-09-28T19:10:11.526Z,3.60
2022-09-28T19:12:46.695Z,3.60
2022-09-28T19:15:15.169Z,3.63
2022-09-28T19:17:49.716Z,3.50
2022-09-28T19:20:18.506Z,3.73
2022-09-28T19:22:56.793Z,3.37
2022-09-28T19:25:26.901Z,3.70
2022-09-28T19:28:01.716Z,3.30
2022-09-28T19:30:30.146Z,3.57
2022-09-28T19:33:04.684Z,3.50
2022-09-28T19:35:33.153Z,5.37
2022-09-28T19:38:07.694Z,8.93
2022-09-28T19:40:40.107Z,10.20
2022-09-28T19:43:14.894Z,7.07
2022-09-28T19:45:43.558Z,6.10
2022-09-28T19:48:18.864Z,4.40
2022-09-28T19:51:02.677Z,3.60
2022-09-28T19:53:33.697Z,3.00
2022-09-28T19:56:11.770Z,3.20
2022-09-28T19:58:40.686Z,3.67
2022-09-28T20:01:15.817Z,3.87
2022-09-28T20:03:44.239Z,4.00
2022-09-28T20:06:18.713Z,4.03
2022-09-28T20:08:47.135Z,3.50
2022-09-28T20:11:25.686Z,3.63
2022-09-28T20:13:55.349Z,3.37
2022-09-28T20:16:30.709Z,3.30
2022-09-28T20:19:03.400Z,3.00
2022-09-28T20:21:38.743Z,3.10
2022-09-28T20:24:07.723Z,3.60
2022-09-28T20:26:44.723Z,3.97
2022-09-28T20:29:13.582Z,3.80
2022-09-28T20:31:55.971Z,3.80
2022-09-28T20:34:33.686Z,3.63
2022-09-28T20:37:08.922Z,3.40
2022-09-28T20:39:40.339Z,3.23
2022-09-28T20:42:20.972Z,3.53
2022-09-28T20:44:49.487Z,3.27
2022-09-28T20:47:24.957Z,3.07
2022-09-28T20:49:53.450Z,3.43
2022-09-28T20:52:29.754Z,3.00
2022-09-28T20:54:58.156Z,3.30
2022-09-28T20:57:35.755Z,3.10
2022-09-28T21:00:04.863Z,4.30
2022-09-28T21:02:39.820Z,3.90
2022-09-28T21:05:09.207Z,4.03
2022-09-28T21:07:44.071Z,3.77
2022-09-28T21:10:12.655Z,3.67
2022-09-28T21:12:48.798Z,3.63
2022-09-28T21:15:17.312Z,3.53
2022-09-28T21:17:51.847Z,3.30
2022-09-28T21:20:20.470Z,3.40
2022-09-28T21:22:55.805Z,3.90
2022-09-28T21:25:24.377Z,4.50
2022-09-28T21:28:00.977Z,4.60
2022-09-28T21:30:29.134Z,4.00
2022-09-28T21:33:10.801Z,4.40
2022-09-28T21:35:46.106Z,5.23
2022-09-28T21:38:20.805Z,6.00
2022-09-28T21:40:49.132Z,5.37
2022-09-28T21:43:25.995Z,5.20
2022-09-28T21:45:55.601Z,5.20
2022-09-28T21:48:31.972Z,5.13
2022-09-28T21:51:02.566Z,4.53
2022-09-28T21:53:39.180Z,5.20
2022-09-28T21:56:09.154Z,5.27
2022-09-28T21:58:46.987Z,4.77
2022-09-28T22:01:18.497Z,4.60
2022-09-28T22:03:55.825Z,4.40
2022-09-28T22:06:25.769Z,4.80
2022-09-28T22:09:00.794Z,4.30
2022-09-28T22:11:30.329Z,3.73
2022-09-28T22:14:07.853Z,3.63
2022-09-28T22:16:36.394Z,3.70
2022-09-28T22:19:10.771Z,4.23
2022-09-28T22:21:39.146Z,3.70
2022-09-28T22:24:15.843Z,4.10
2022-09-28T22:26:44.188Z,4.10
2022-09-28T22:29:21.047Z,4.10
2022-09-28T22:32:02.141Z,3.97
2022-09-28T22:34:43.868Z,4.40
2022-09-28T22:37:12.173Z,4.10
2022-09-28T22:39:47.827Z,4.90
2022-09-28T22:42:17.555Z,4.73
2022-09-28T22:44:53.875Z,4.60
2022-09-28T22:47:22.232Z,4.40
2022-09-28T22:49:56.906Z,4.80
2022-09-28T22:52:25.447Z,4.07
2022-09-28T22:55:00.909Z,3.70
2022-09-28T22:57:29.312Z,3.93
2022-09-28T23:00:05.858Z,4.50
2022-09-28T23:02:34.384Z,4.30
2022-09-28T23:05:08.890Z,4.00
2022-09-28T23:07:37.238Z,4.50
2022-09-28T23:10:12.853Z,4.00
2022-09-28T23:12:41.341Z,3.90
2022-09-28T23:15:18.861Z,4.03
2022-09-28T23:17:47.206Z,4.17
2022-09-28T23:20:22.033Z,3.30
2022-09-28T23:22:51.018Z,4.07
2022-09-28T23:25:26.872Z,3.80
2022-09-28T23:27:55.256Z,3.90
2022-09-28T23:30:33.068Z,3.70
2022-09-28T23:33:15.053Z,3.47
2022-09-28T23:35:50.150Z,3.90
2022-09-28T23:38:25.882Z,3.90
2022-09-28T23:40:54.214Z,3.83
2022-09-28T23:43:28.909Z,3.70
2022-09-28T23:45:58.694Z,4.27
2022-09-28T23:48:33.900Z,4.10
2022-09-28T23:51:02.534Z,4.00
2022-09-28T23:53:38.906Z,3.90
2022-09-28T23:56:08.005Z,3.90
2022-09-28T23:58:43.012Z,4.00
